sensor_id;sensor_type;location;lat;lon;timestamp;P1;durP1;ratioP1;P2;durP2;ratioP2
58338;SDS011;68636;52.704;6.536;2023-03-26T00:00:37;12.15;;;1.00;;
58338;SDS011;68636;52.704;6.536;2023-03-26T00:03:05;13.43;;;1.48;;
58338;SDS011;68636;52.704;6.536;2023-03-26T00:05:30;7.00;;;0.93;;
58338;SDS011;68636;52.704;6.536;2023-03-26T00:07:57;13.20;;;1.17;;
58338;SDS011;68636;52.704;6.536;2023-03-26T00:10:23;14.68;;;1.35;;
58338;SDS011;68636;52.704;6.536;2023-03-26T00:12:49;9.55;;;1.08;;
58338;SDS011;68636;52.704;6.536;2023-03-26T00:15:15;12.70;;;1.73;;
58338;SDS011;68636;52.704;6.536;2023-03-26T00:17:41;8.63;;;1.30;;
58338;SDS011;68636;52.704;6.536;2023-03-26T00:20:10;10.82;;;1.10;;
58338;SDS011;68636;52.704;6.536;2023-03-26T00:22:37;8.50;;;0.75;;
58338;SDS011;68636;52.704;6.536;2023-03-26T00:25:04;8.75;;;0.88;;
58338;SDS011;68636;52.704;6.536;2023-03-26T00:27:31;9.07;;;0.90;;
58338;SDS011;68636;52.704;6.536;2023-03-26T00:29:58;11.35;;;1.67;;
58338;SDS011;68636;52.704;6.536;2023-03-26T00:32:28;10.95;;;1.17;;
58338;SDS011;68636;52.704;6.536;2023-03-26T00:34:58;8.18;;;1.25;;
58338;SDS011;68636;52.704;6.536;2023-03-26T00:37:25;11.55;;;0.90;;
58338;SDS011;68636;52.704;6.536;2023-03-26T00:39:55;10.18;;;0.95;;
58338;SDS011;68636;52.704;6.536;2023-03-26T00:42:26;9.45;;;1.10;;
58338;SDS011;68636;52.704;6.536;2023-03-26T00:44:52;6.57;;;0.80;;
58338;SDS011;68636;52.704;6.536;2023-03-26T00:47:25;7.35;;;0.60;;
58338;SDS011;68636;52.704;6.536;2023-03-26T00:52:22;8.90;;;0.77;;
58338;SDS011;68636;52.704;6.536;2023-03-26T00:54:51;5.55;;;0.70;;
58338;SDS011;68636;52.704;6.536;2023-03-26T00:57:17;11.02;;;1.67;;
58338;SDS011;68636;52.704;6.536;2023-03-26T00:59:45;15.70;;;1.10;;
58338;SDS011;68636;52.704;6.536;2023-03-26T01:02:13;10.13;;;1.10;;
58338;SDS011;68636;52.704;6.536;2023-03-26T01:04:45;6.18;;;0.80;;
58338;SDS011;68636;52.704;6.536;2023-03-26T01:07:20;6.38;;;0.98;;
58338;SDS011;68636;52.704;6.536;2023-03-26T01:09:54;10.15;;;0.85;;
58338;SDS011;68636;52.704;6.536;2023-03-26T01:12:26;11.55;;;1.13;;
58338;SDS011;68636;52.704;6.536;2023-03-26T01:14:58;9.23;;;1.05;;
58338;SDS011;68636;52.704;6.536;2023-03-26T01:17:26;18.15;;;1.50;;
58338;SDS011;68636;52.704;6.536;2023-03-26T01:20:12;10.77;;;1.13;;
58338;SDS011;68636;52.704;6.536;2023-03-26T01:22:48;7.93;;;1.00;;
58338;SDS011;68636;52.704;6.536;2023-03-26T01:25:17;11.27;;;1.30;;
58338;SDS011;68636;52.704;6.536;2023-03-26T01:27:49;11.55;;;1.48;;
58338;SDS011;68636;52.704;6.536;2023-03-26T01:35:44;11.23;;;0.90;;
58338;SDS011;68636;52.704;6.536;2023-03-26T01:38:18;8.98;;;1.05;;
58338;SDS011;68636;52.704;6.536;2023-03-26T01:40:54;9.90;;;1.05;;
58338;SDS011;68636;52.704;6.536;2023-03-26T01:43:30;11.82;;;1.35;;
58338;SDS011;68636;52.704;6.536;2023-03-26T01:46:11;9.18;;;1.20;;
58338;SDS011;68636;52.704;6.536;2023-03-26T01:48:40;7.88;;;1.27;;
58338;SDS011;68636;52.704;6.536;2023-03-26T01:51:10;10.57;;;1.08;;
58338;SDS011;68636;52.704;6.536;2023-03-26T01:53:37;12.43;;;1.10;;
58338;SDS011;68636;52.704;6.536;2023-03-26T01:58:52;11.95;;;1.40;;
58338;SDS011;68636;52.704;6.536;2023-03-26T02:04:33;6.32;;;1.35;;
58338;SDS011;68636;52.704;6.536;2023-03-26T02:10:03;11.43;;;1.20;;
58338;SDS011;68636;52.704;6.536;2023-03-26T02:12:43;9.13;;;1.40;;
58338;SDS011;68636;52.704;6.536;2023-03-26T02:15:10;10.07;;;1.20;;
58338;SDS011;68636;52.704;6.536;2023-03-26T02:17:36;7.70;;;1.05;;
58338;SDS011;68636;52.704;6.536;2023-03-26T02:20:05;11.93;;;1.30;;
58338;SDS011;68636;52.704;6.536;2023-03-26T02:22:34;8.38;;;1.65;;
58338;SDS011;68636;52.704;6.536;2023-03-26T02:25:15;9.57;;;1.00;;
58338;SDS011;68636;52.704;6.536;2023-03-26T02:27:42;7.80;;;0.85;;
58338;SDS011;68636;52.704;6.536;2023-03-26T02:30:09;7.22;;;0.90;;
58338;SDS011;68636;52.704;6.536;2023-03-26T02:32:38;11.18;;;1.15;;
58338;SDS011;68636;52.704;6.536;2023-03-26T02:35:03;7.18;;;1.13;;
58338;SDS011;68636;52.704;6.536;2023-03-26T02:37:31;9.68;;;1.42;;
58338;SDS011;68636;52.704;6.536;2023-03-26T02:42:26;10.95;;;1.42;;
58338;SDS011;68636;52.704;6.536;2023-03-26T02:44:52;11.05;;;1.67;;
58338;SDS011;68636;52.704;6.536;2023-03-26T02:47:18;5.88;;;1.10;;
58338;SDS011;68636;52.704;6.536;2023-03-26T02:49:44;6.47;;;1.40;;
58338;SDS011;68636;52.704;6.536;2023-03-26T02:52:10;7.82;;;0.93;;
58338;SDS011;68636;52.704;6.536;2023-03-26T02:54:35;11.07;;;1.40;;
58338;SDS011;68636;52.704;6.536;2023-03-26T02:57:01;7.28;;;1.27;;
58338;SDS011;68636;52.704;6.536;2023-03-26T02:59:27;11.45;;;1.17;;
58338;SDS011;68636;52.704;6.536;2023-03-26T03:01:53;8.38;;;1.20;;
58338;SDS011;68636;52.704;6.536;2023-03-26T03:04:18;11.55;;;1.42;;
58338;SDS011;68636;52.704;6.536;2023-03-26T03:06:45;15.77;;;2.03;;
58338;SDS011;68636;52.704;6.536;2023-03-26T03:09:11;10.27;;;1.30;;
58338;SDS011;68636;52.704;6.536;2023-03-26T03:11:38;6.00;;;1.33;;
58338;SDS011;68636;52.704;6.536;2023-03-26T03:14:04;13.38;;;2.30;;
58338;SDS011;68636;52.704;6.536;2023-03-26T03:16:30;10.25;;;1.65;;
58338;SDS011;68636;52.704;6.536;2023-03-26T03:18:57;13.48;;;1.38;;
58338;SDS011;68636;52.704;6.536;2023-03-26T03:21:23;12.88;;;1.58;;
58338;SDS011;68636;52.704;6.536;2023-03-26T03:23:51;11.73;;;1.65;;
58338;SDS011;68636;52.704;6.536;2023-03-26T03:26:20;13.02;;;1.77;;
58338;SDS011;68636;52.704;6.536;2023-03-26T03:28:52;12.20;;;1.65;;
58338;SDS011;68636;52.704;6.536;2023-03-26T03:31:20;9.27;;;1.77;;
58338;SDS011;68636;52.704;6.536;2023-03-26T03:33:46;16.40;;;4.07;;
58338;SDS011;68636;52.704;6.536;2023-03-26T03:36:13;10.73;;;1.50;;
58338;SDS011;68636;52.704;6.536;2023-03-26T03:38:42;11.57;;;1.80;;
58338;SDS011;68636;52.704;6.536;2023-03-26T03:41:08;11.48;;;2.42;;
58338;SDS011;68636;52.704;6.536;2023-03-26T03:43:35;9.45;;;2.00;;
58338;SDS011;68636;52.704;6.536;2023-03-26T03:46:01;11.20;;;1.67;;
58338;SDS011;68636;52.704;6.536;2023-03-26T03:48:27;10.98;;;2.30;;
58338;SDS011;68636;52.704;6.536;2023-03-26T03:50:53;11.10;;;1.70;;
58338;SDS011;68636;52.704;6.536;2023-03-26T03:53:20;11.90;;;1.77;;
58338;SDS011;68636;52.704;6.536;2023-03-26T03:55:53;9.02;;;1.52;;
58338;SDS011;68636;52.704;6.536;2023-03-26T03:58:20;10.80;;;2.33;;
58338;SDS011;68636;52.704;6.536;2023-03-26T04:00:48;10.57;;;2.42;;
58338;SDS011;68636;52.704;6.536;2023-03-26T04:03:15;11.75;;;2.28;;
58338;SDS011;68636;52.704;6.536;2023-03-26T04:05:42;16.97;;;3.07;;
58338;SDS011;68636;52.704;6.536;2023-03-26T04:08:14;12.38;;;3.28;;
58338;SDS011;68636;52.704;6.536;2023-03-26T04:10:40;12.25;;;2.22;;
58338;SDS011;68636;52.704;6.536;2023-03-26T04:13:08;11.10;;;2.38;;
58338;SDS011;68636;52.704;6.536;2023-03-26T04:15:35;12.20;;;2.15;;
58338;SDS011;68636;52.704;6.536;2023-03-26T04:18:01;14.43;;;2.40;;
58338;SDS011;68636;52.704;6.536;2023-03-26T04:20:26;13.93;;;2.90;;
58338;SDS011;68636;52.704;6.536;2023-03-26T04:22:52;11.30;;;2.35;;
58338;SDS011;68636;52.704;6.536;2023-03-26T04:25:18;18.08;;;3.15;;
58338;SDS011;68636;52.704;6.536;2023-03-26T04:27:44;7.60;;;1.92;;
58338;SDS011;68636;52.704;6.536;2023-03-26T04:30:15;8.73;;;2.58;;
58338;SDS011;68636;52.704;6.536;2023-03-26T04:32:44;8.70;;;1.90;;
58338;SDS011;68636;52.704;6.536;2023-03-26T04:35:11;11.93;;;2.20;;
58338;SDS011;68636;52.704;6.536;2023-03-26T04:37:40;11.35;;;2.90;;
58338;SDS011;68636;52.704;6.536;2023-03-26T04:40:15;17.17;;;2.25;;
58338;SDS011;68636;52.704;6.536;2023-03-26T04:42:44;18.75;;;2.63;;
58338;SDS011;68636;52.704;6.536;2023-03-26T04:45:11;11.98;;;2.40;;
58338;SDS011;68636;52.704;6.536;2023-03-26T04:47:41;15.90;;;2.42;;
58338;SDS011;68636;52.704;6.536;2023-03-26T04:50:08;9.52;;;2.80;;
58338;SDS011;68636;52.704;6.536;2023-03-26T04:52:35;12.07;;;2.63;;
58338;SDS011;68636;52.704;6.536;2023-03-26T04:55:02;13.60;;;3.03;;
58338;SDS011;68636;52.704;6.536;2023-03-26T04:57:32;9.95;;;2.30;;
58338;SDS011;68636;52.704;6.536;2023-03-26T05:00:01;12.05;;;2.40;;
58338;SDS011;68636;52.704;6.536;2023-03-26T05:02:42;11.35;;;2.30;;
58338;SDS011;68636;52.704;6.536;2023-03-26T05:05:09;12.48;;;2.50;;
58338;SDS011;68636;52.704;6.536;2023-03-26T05:07:36;16.88;;;2.72;;
58338;SDS011;68636;52.704;6.536;2023-03-26T05:10:02;12.13;;;2.60;;
58338;SDS011;68636;52.704;6.536;2023-03-26T05:12:29;7.97;;;2.22;;
58338;SDS011;68636;52.704;6.536;2023-03-26T05:14:54;15.25;;;3.10;;
58338;SDS011;68636;52.704;6.536;2023-03-26T05:17:21;7.28;;;2.40;;
58338;SDS011;68636;52.704;6.536;2023-03-26T05:19:48;12.85;;;2.78;;
58338;SDS011;68636;52.704;6.536;2023-03-26T05:22:16;12.30;;;2.83;;
58338;SDS011;68636;52.704;6.536;2023-03-26T05:24:45;14.30;;;3.42;;
58338;SDS011;68636;52.704;6.536;2023-03-26T05:27:14;13.43;;;3.28;;
58338;SDS011;68636;52.704;6.536;2023-03-26T05:29:44;14.98;;;3.92;;
58338;SDS011;68636;52.704;6.536;2023-03-26T05:32:10;14.60;;;3.50;;
58338;SDS011;68636;52.704;6.536;2023-03-26T05:34:37;14.88;;;3.90;;
58338;SDS011;68636;52.704;6.536;2023-03-26T05:37:04;16.55;;;2.83;;
58338;SDS011;68636;52.704;6.536;2023-03-26T05:39:31;9.32;;;2.30;;
58338;SDS011;68636;52.704;6.536;2023-03-26T05:41:57;11.88;;;2.30;;
58338;SDS011;68636;52.704;6.536;2023-03-26T05:44:23;13.40;;;2.58;;
58338;SDS011;68636;52.704;6.536;2023-03-26T05:46:49;12.10;;;2.10;;
58338;SDS011;68636;52.704;6.536;2023-03-26T05:49:15;16.20;;;2.70;;
58338;SDS011;68636;52.704;6.536;2023-03-26T05:51:41;10.70;;;2.70;;
58338;SDS011;68636;52.704;6.536;2023-03-26T05:54:06;11.65;;;2.95;;
58338;SDS011;68636;52.704;6.536;2023-03-26T05:56:32;16.50;;;2.85;;
58338;SDS011;68636;52.704;6.536;2023-03-26T05:58:58;14.75;;;2.58;;
58338;SDS011;68636;52.704;6.536;2023-03-26T06:01:24;12.32;;;2.33;;
58338;SDS011;68636;52.704;6.536;2023-03-26T06:03:50;13.27;;;2.47;;
58338;SDS011;68636;52.704;6.536;2023-03-26T06:06:16;16.83;;;3.38;;
58338;SDS011;68636;52.704;6.536;2023-03-26T06:08:45;9.38;;;2.50;;
58338;SDS011;68636;52.704;6.536;2023-03-26T06:11:15;13.13;;;2.72;;
58338;SDS011;68636;52.704;6.536;2023-03-26T06:13:43;14.35;;;2.60;;
58338;SDS011;68636;52.704;6.536;2023-03-26T06:16:09;10.63;;;2.60;;
58338;SDS011;68636;52.704;6.536;2023-03-26T06:21:02;11.65;;;2.70;;
58338;SDS011;68636;52.704;6.536;2023-03-26T06:23:29;11.02;;;3.67;;
58338;SDS011;68636;52.704;6.536;2023-03-26T06:25:55;14.95;;;3.53;;
58338;SDS011;68636;52.704;6.536;2023-03-26T06:28:21;16.27;;;3.15;;
58338;SDS011;68636;52.704;6.536;2023-03-26T06:30:47;14.98;;;2.78;;
58338;SDS011;68636;52.704;6.536;2023-03-26T06:33:13;10.13;;;2.43;;
58338;SDS011;68636;52.704;6.536;2023-03-26T06:35:39;17.17;;;3.15;;
58338;SDS011;68636;52.704;6.536;2023-03-26T06:40:32;18.63;;;3.33;;
58338;SDS011;68636;52.704;6.536;2023-03-26T06:42:58;12.25;;;3.38;;
58338;SDS011;68636;52.704;6.536;2023-03-26T06:45:25;16.00;;;2.88;;
58338;SDS011;68636;52.704;6.536;2023-03-26T06:47:52;26.85;;;3.08;;
58338;SDS011;68636;52.704;6.536;2023-03-26T06:50:18;13.77;;;3.10;;
58338;SDS011;68636;52.704;6.536;2023-03-26T06:52:44;17.02;;;2.50;;
58338;SDS011;68636;52.704;6.536;2023-03-26T06:55:09;12.80;;;2.60;;
58338;SDS011;68636;52.704;6.536;2023-03-26T06:57:36;19.55;;;2.50;;
58338;SDS011;68636;52.704;6.536;2023-03-26T07:00:02;22.73;;;3.45;;
58338;SDS011;68636;52.704;6.536;2023-03-26T07:04:54;21.30;;;2.90;;
58338;SDS011;68636;52.704;6.536;2023-03-26T07:07:20;20.30;;;2.58;;
58338;SDS011;68636;52.704;6.536;2023-03-26T07:09:48;25.17;;;3.58;;
58338;SDS011;68636;52.704;6.536;2023-03-26T07:12:15;20.93;;;3.13;;
58338;SDS011;68636;52.704;6.536;2023-03-26T07:14:41;14.57;;;2.60;;
58338;SDS011;68636;52.704;6.536;2023-03-26T07:17:07;16.50;;;2.90;;
58338;SDS011;68636;52.704;6.536;2023-03-26T07:19:32;23.02;;;2.75;;
58338;SDS011;68636;52.704;6.536;2023-03-26T07:21:58;15.18;;;2.35;;
58338;SDS011;68636;52.704;6.536;2023-03-26T07:24:25;19.92;;;2.58;;
58338;SDS011;68636;52.704;6.536;2023-03-26T07:46:09;19.42;;;2.10;;
58338;SDS011;68636;52.704;6.536;2023-03-26T07:48:40;18.52;;;1.98;;
58338;SDS011;68636;52.704;6.536;2023-03-26T07:51:08;21.52;;;2.00;;
58338;SDS011;68636;52.704;6.536;2023-03-26T07:53:34;17.67;;;2.15;;
58338;SDS011;68636;52.704;6.536;2023-03-26T07:56:13;20.15;;;1.80;;
58338;SDS011;68636;52.704;6.536;2023-03-26T08:04:25;19.85;;;2.65;;
58338;SDS011;68636;52.704;6.536;2023-03-26T08:13:04;16.67;;;2.03;;
58338;SDS011;68636;52.704;6.536;2023-03-26T08:15:57;20.10;;;1.48;;
58338;SDS011;68636;52.704;6.536;2023-03-26T08:18:50;14.90;;;1.65;;
58338;SDS011;68636;52.704;6.536;2023-03-26T08:21:37;16.45;;;1.42;;
58338;SDS011;68636;52.704;6.536;2023-03-26T08:27:15;18.75;;;2.13;;
58338;SDS011;68636;52.704;6.536;2023-03-26T08:30:07;20.15;;;1.65;;
58338;SDS011;68636;52.704;6.536;2023-03-26T08:32:33;17.48;;;1.70;;
58338;SDS011;68636;52.704;6.536;2023-03-26T08:35:00;23.00;;;2.33;;
58338;SDS011;68636;52.704;6.536;2023-03-26T08:37:28;19.65;;;2.40;;
58338;SDS011;68636;52.704;6.536;2023-03-26T08:39:53;23.60;;;2.85;;
58338;SDS011;68636;52.704;6.536;2023-03-26T08:42:36;20.30;;;2.33;;
58338;SDS011;68636;52.704;6.536;2023-03-26T08:54:17;16.80;;;1.80;;
58338;SDS011;68636;52.704;6.536;2023-03-26T08:57:10;17.67;;;2.15;;
58338;SDS011;68636;52.704;6.536;2023-03-26T09:02:30;20.50;;;1.73;;
58338;SDS011;68636;52.704;6.536;2023-03-26T09:05:24;26.48;;;1.88;;
58338;SDS011;68636;52.704;6.536;2023-03-26T09:35:53;18.65;;;1.58;;
58338;SDS011;68636;52.704;6.536;2023-03-26T09:41:16;16.30;;;1.38;;
58338;SDS011;68636;52.704;6.536;2023-03-26T09:52:13;17.52;;;1.10;;
58338;SDS011;68636;52.704;6.536;2023-03-26T09:57:55;18.40;;;1.35;;
58338;SDS011;68636;52.704;6.536;2023-03-26T10:00:42;19.15;;;1.63;;
58338;SDS011;68636;52.704;6.536;2023-03-26T10:03:36;16.45;;;1.60;;
58338;SDS011;68636;52.704;6.536;2023-03-26T10:12:04;14.38;;;1.65;;
58338;SDS011;68636;52.704;6.536;2023-03-26T10:14:55;16.70;;;1.67;;
58338;SDS011;68636;52.704;6.536;2023-03-26T10:20:36;12.15;;;1.17;;
58338;SDS011;68636;52.704;6.536;2023-03-26T10:23:25;14.30;;;0.90;;
58338;SDS011;68636;52.704;6.536;2023-03-26T10:29:10;16.38;;;1.67;;
58338;SDS011;68636;52.704;6.536;2023-03-26T10:37:01;20.33;;;1.67;;
58338;SDS011;68636;52.704;6.536;2023-03-26T10:42:42;22.10;;;2.78;;
58338;SDS011;68636;52.704;6.536;2023-03-26T10:50:48;11.10;;;1.63;;
58338;SDS011;68636;52.704;6.536;2023-03-26T10:53:24;19.25;;;1.60;;
58338;SDS011;68636;52.704;6.536;2023-03-26T10:55:56;19.45;;;1.58;;
58338;SDS011;68636;52.704;6.536;2023-03-26T10:58:31;12.52;;;1.00;;
58338;SDS011;68636;52.704;6.536;2023-03-26T11:01:03;10.25;;;1.13;;
58338;SDS011;68636;52.704;6.536;2023-03-26T11:14:49;15.93;;;1.25;;
58338;SDS011;68636;52.704;6.536;2023-03-26T11:22:58;12.80;;;1.35;;
58338;SDS011;68636;52.704;6.536;2023-03-26T11:34:01;10.02;;;1.00;;
58338;SDS011;68636;52.704;6.536;2023-03-26T11:36:32;8.40;;;0.80;;
58338;SDS011;68636;52.704;6.536;2023-03-26T11:39:05;11.02;;;0.77;;
58338;SDS011;68636;52.704;6.536;2023-03-26T11:41:38;12.68;;;1.10;;
58338;SDS011;68636;52.704;6.536;2023-03-26T11:44:17;15.07;;;1.35;;
58338;SDS011;68636;52.704;6.536;2023-03-26T11:46:51;18.53;;;2.17;;
58338;SDS011;68636;52.704;6.536;2023-03-26T11:49:25;13.15;;;1.40;;
58338;SDS011;68636;52.704;6.536;2023-03-26T11:51:53;14.50;;;1.08;;
58338;SDS011;68636;52.704;6.536;2023-03-26T11:54:19;13.85;;;1.15;;
58338;SDS011;68636;52.704;6.536;2023-03-26T11:56:50;15.57;;;1.70;;
58338;SDS011;68636;52.704;6.536;2023-03-26T11:59:27;14.60;;;1.15;;
58338;SDS011;68636;52.704;6.536;2023-03-26T12:01:55;9.20;;;1.00;;
58338;SDS011;68636;52.704;6.536;2023-03-26T12:09:51;11.57;;;1.10;;
58338;SDS011;68636;52.704;6.536;2023-03-26T12:12:18;13.90;;;1.50;;
58338;SDS011;68636;52.704;6.536;2023-03-26T12:14:45;12.73;;;1.65;;
58338;SDS011;68636;52.704;6.536;2023-03-26T12:25:26;13.00;;;1.20;;
58338;SDS011;68636;52.704;6.536;2023-03-26T12:30:28;20.17;;;2.22;;
58338;SDS011;68636;52.704;6.536;2023-03-26T12:33:01;13.32;;;1.75;;
58338;SDS011;68636;52.704;6.536;2023-03-26T12:35:30;15.18;;;1.63;;
58338;SDS011;68636;52.704;6.536;2023-03-26T12:41:03;20.35;;;2.45;;
58338;SDS011;68636;52.704;6.536;2023-03-26T12:43:38;17.77;;;1.55;;
58338;SDS011;68636;52.704;6.536;2023-03-26T12:46:18;14.25;;;1.35;;
58338;SDS011;68636;52.704;6.536;2023-03-26T12:48:44;11.80;;;1.17;;
58338;SDS011;68636;52.704;6.536;2023-03-26T12:51:20;20.63;;;1.88;;
58338;SDS011;68636;52.704;6.536;2023-03-26T12:56:56;15.82;;;1.80;;
58338;SDS011;68636;52.704;6.536;2023-03-26T13:16:34;12.88;;;1.33;;
58338;SDS011;68636;52.704;6.536;2023-03-26T13:19:11;13.43;;;1.50;;
58338;SDS011;68636;52.704;6.536;2023-03-26T13:48:35;12.83;;;1.70;;
58338;SDS011;68636;52.704;6.536;2023-03-26T13:51:21;12.80;;;1.35;;
58338;SDS011;68636;52.704;6.536;2023-03-26T13:54:00;5.47;;;0.80;;
58338;SDS011;68636;52.704;6.536;2023-03-26T13:56:52;12.45;;;1.10;;
58338;SDS011;68636;52.704;6.536;2023-03-26T13:59:33;13.13;;;1.33;;
58338;SDS011;68636;52.704;6.536;2023-03-26T14:02:30;11.18;;;1.20;;
58338;SDS011;68636;52.704;6.536;2023-03-26T14:05:02;18.63;;;1.50;;
58338;SDS011;68636;52.704;6.536;2023-03-26T14:07:35;11.73;;;0.85;;
58338;SDS011;68636;52.704;6.536;2023-03-26T14:10:27;19.50;;;1.40;;
58338;SDS011;68636;52.704;6.536;2023-03-26T14:13:05;14.75;;;1.15;;
58338;SDS011;68636;52.704;6.536;2023-03-26T14:21:10;13.45;;;1.50;;
58338;SDS011;68636;52.704;6.536;2023-03-26T14:24:15;15.90;;;0.80;;
58338;SDS011;68636;52.704;6.536;2023-03-26T14:38:05;8.20;;;0.98;;
58338;SDS011;68636;52.704;6.536;2023-03-26T14:41:00;13.25;;;1.13;;
58338;SDS011;68636;52.704;6.536;2023-03-26T14:46:23;19.23;;;1.30;;
58338;SDS011;68636;52.704;6.536;2023-03-26T14:49:21;18.58;;;1.65;;
58338;SDS011;68636;52.704;6.536;2023-03-26T14:54:40;9.63;;;0.88;;
58338;SDS011;68636;52.704;6.536;2023-03-26T15:15:29;10.75;;;0.70;;
58338;SDS011;68636;52.704;6.536;2023-03-26T15:21:44;7.30;;;0.60;;
58338;SDS011;68636;52.704;6.536;2023-03-26T15:39:29;12.32;;;0.82;;
58338;SDS011;68636;52.704;6.536;2023-03-26T15:55:29;8.18;;;0.82;;
58338;SDS011;68636;52.704;6.536;2023-03-26T15:58:05;11.63;;;0.70;;
58338;SDS011;68636;52.704;6.536;2023-03-26T16:04:03;17.77;;;1.13;;
58338;SDS011;68636;52.704;6.536;2023-03-26T16:12:25;15.02;;;0.98;;
58338;SDS011;68636;52.704;6.536;2023-03-26T16:15:30;12.88;;;0.98;;
58338;SDS011;68636;52.704;6.536;2023-03-26T16:23:01;4.60;;;0.43;;
58338;SDS011;68636;52.704;6.536;2023-03-26T16:25:31;12.50;;;1.13;;
58338;SDS011;68636;52.704;6.536;2023-03-26T16:30:37;11.88;;;1.08;;
58338;SDS011;68636;52.704;6.536;2023-03-26T16:33:13;12.93;;;1.10;;
58338;SDS011;68636;52.704;6.536;2023-03-26T16:35:47;10.15;;;0.85;;
58338;SDS011;68636;52.704;6.536;2023-03-26T16:38:44;8.30;;;1.25;;
58338;SDS011;68636;52.704;6.536;2023-03-26T16:41:28;10.25;;;1.33;;
58338;SDS011;68636;52.704;6.536;2023-03-26T16:44:04;12.82;;;1.10;;
58338;SDS011;68636;52.704;6.536;2023-03-26T16:46:42;9.00;;;0.75;;
58338;SDS011;68636;52.704;6.536;2023-03-26T16:55:25;16.10;;;1.13;;
58338;SDS011;68636;52.704;6.536;2023-03-26T17:11:57;7.95;;;1.52;;
58338;SDS011;68636;52.704;6.536;2023-03-26T17:14:41;7.32;;;0.70;;
58338;SDS011;68636;52.704;6.536;2023-03-26T17:20:34;16.35;;;1.45;;
58338;SDS011;68636;52.704;6.536;2023-03-26T17:23:35;9.40;;;1.00;;
58338;SDS011;68636;52.704;6.536;2023-03-26T17:31:58;14.52;;;1.30;;
58338;SDS011;68636;52.704;6.536;2023-03-26T17:34:31;12.88;;;1.20;;
58338;SDS011;68636;52.704;6.536;2023-03-26T17:36:58;8.43;;;0.60;;
58338;SDS011;68636;52.704;6.536;2023-03-26T17:44:53;17.48;;;1.48;;
58338;SDS011;68636;52.704;6.536;2023-03-26T17:55:17;10.60;;;1.30;;
58338;SDS011;68636;52.704;6.536;2023-03-26T18:00:22;10.80;;;0.75;;
58338;SDS011;68636;52.704;6.536;2023-03-26T18:02:56;14.10;;;0.90;;
58338;SDS011;68636;52.704;6.536;2023-03-26T18:05:26;12.45;;;0.70;;
58338;SDS011;68636;52.704;6.536;2023-03-26T18:16:36;9.52;;;0.70;;
58338;SDS011;68636;52.704;6.536;2023-03-26T18:19:09;8.80;;;0.73;;
58338;SDS011;68636;52.704;6.536;2023-03-26T18:21:43;10.32;;;1.00;;
58338;SDS011;68636;52.704;6.536;2023-03-26T18:24:36;14.30;;;1.10;;
58338;SDS011;68636;52.704;6.536;2023-03-26T18:27:18;7.63;;;0.63;;
58338;SDS011;68636;52.704;6.536;2023-03-26T18:32:21;16.55;;;2.45;;
58338;SDS011;68636;52.704;6.536;2023-03-26T18:34:57;14.27;;;0.77;;
58338;SDS011;68636;52.704;6.536;2023-03-26T18:37:31;12.18;;;0.95;;
58338;SDS011;68636;52.704;6.536;2023-03-26T18:42:46;13.57;;;0.82;;
58338;SDS011;68636;52.704;6.536;2023-03-26T18:47:54;11.25;;;1.00;;
58338;SDS011;68636;52.704;6.536;2023-03-26T18:50:24;11.45;;;1.17;;
58338;SDS011;68636;52.704;6.536;2023-03-26T18:52:54;15.05;;;1.00;;
58338;SDS011;68636;52.704;6.536;2023-03-26T18:55:24;8.20;;;0.93;;
58338;SDS011;68636;52.704;6.536;2023-03-26T18:57:51;7.88;;;0.77;;
58338;SDS011;68636;52.704;6.536;2023-03-26T19:00:18;18.33;;;0.77;;
58338;SDS011;68636;52.704;6.536;2023-03-26T19:02:46;9.27;;;0.82;;
58338;SDS011;68636;52.704;6.536;2023-03-26T19:05:15;11.77;;;0.57;;
58338;SDS011;68636;52.704;6.536;2023-03-26T19:07:43;9.07;;;0.73;;
58338;SDS011;68636;52.704;6.536;2023-03-26T19:10:13;7.30;;;0.65;;
58338;SDS011;68636;52.704;6.536;2023-03-26T19:12:43;8.00;;;1.00;;
58338;SDS011;68636;52.704;6.536;2023-03-26T19:15:14;9.77;;;1.10;;
58338;SDS011;68636;52.704;6.536;2023-03-26T19:17:44;10.30;;;1.02;;
58338;SDS011;68636;52.704;6.536;2023-03-26T19:20:23;10.05;;;1.40;;
58338;SDS011;68636;52.704;6.536;2023-03-26T19:22:55;16.13;;;1.20;;
58338;SDS011;68636;52.704;6.536;2023-03-26T19:25:28;12.18;;;0.98;;
58338;SDS011;68636;52.704;6.536;2023-03-26T19:28:00;11.20;;;1.85;;
58338;SDS011;68636;52.704;6.536;2023-03-26T19:30:30;11.00;;;1.33;;
58338;SDS011;68636;52.704;6.536;2023-03-26T19:33:03;15.85;;;2.95;;
58338;SDS011;68636;52.704;6.536;2023-03-26T19:35:37;12.20;;;1.20;;
58338;SDS011;68636;52.704;6.536;2023-03-26T19:38:17;18.42;;;1.80;;
58338;SDS011;68636;52.704;6.536;2023-03-26T19:40:48;8.70;;;1.52;;
58338;SDS011;68636;52.704;6.536;2023-03-26T19:43:16;14.80;;;1.92;;
58338;SDS011;68636;52.704;6.536;2023-03-26T19:45:43;20.73;;;2.20;;
58338;SDS011;68636;52.704;6.536;2023-03-26T19:48:11;7.88;;;1.10;;
58338;SDS011;68636;52.704;6.536;2023-03-26T19:50:42;15.02;;;1.40;;
58338;SDS011;68636;52.704;6.536;2023-03-26T19:53:19;7.18;;;0.93;;
58338;SDS011;68636;52.704;6.536;2023-03-26T19:55:56;12.57;;;0.98;;
58338;SDS011;68636;52.704;6.536;2023-03-26T19:58:35;13.40;;;1.10;;
58338;SDS011;68636;52.704;6.536;2023-03-26T20:01:02;8.20;;;1.23;;
58338;SDS011;68636;52.704;6.536;2023-03-26T20:03:34;18.40;;;1.58;;
58338;SDS011;68636;52.704;6.536;2023-03-26T20:06:02;15.25;;;1.20;;
58338;SDS011;68636;52.704;6.536;2023-03-26T20:08:28;10.88;;;0.85;;
58338;SDS011;68636;52.704;6.536;2023-03-26T20:10:55;20.85;;;1.50;;
58338;SDS011;68636;52.704;6.536;2023-03-26T20:13:21;19.90;;;1.38;;
58338;SDS011;68636;52.704;6.536;2023-03-26T20:15:51;12.75;;;1.70;;
58338;SDS011;68636;52.704;6.536;2023-03-26T20:18:21;12.32;;;1.90;;
58338;SDS011;68636;52.704;6.536;2023-03-26T20:20:48;10.18;;;1.40;;
58338;SDS011;68636;52.704;6.536;2023-03-26T20:23:14;11.50;;;1.88;;
58338;SDS011;68636;52.704;6.536;2023-03-26T20:25:45;10.35;;;1.08;;
58338;SDS011;68636;52.704;6.536;2023-03-26T20:28:15;16.70;;;1.13;;
58338;SDS011;68636;52.704;6.536;2023-03-26T20:30:43;9.00;;;0.82;;
58338;SDS011;68636;52.704;6.536;2023-03-26T20:33:15;13.55;;;1.15;;
58338;SDS011;68636;52.704;6.536;2023-03-26T20:35:44;9.68;;;1.10;;
58338;SDS011;68636;52.704;6.536;2023-03-26T20:38:10;9.00;;;1.15;;
58338;SDS011;68636;52.704;6.536;2023-03-26T20:40:36;11.45;;;0.80;;
58338;SDS011;68636;52.704;6.536;2023-03-26T20:43:03;13.07;;;1.20;;
58338;SDS011;68636;52.704;6.536;2023-03-26T20:45:35;9.10;;;0.98;;
58338;SDS011;68636;52.704;6.536;2023-03-26T20:48:01;12.27;;;0.85;;
58338;SDS011;68636;52.704;6.536;2023-03-26T20:50:26;7.93;;;1.15;;
58338;SDS011;68636;52.704;6.536;2023-03-26T20:52:52;14.60;;;1.48;;
58338;SDS011;68636;52.704;6.536;2023-03-26T20:55:18;10.98;;;0.75;;
58338;SDS011;68636;52.704;6.536;2023-03-26T20:57:47;12.95;;;0.90;;
58338;SDS011;68636;52.704;6.536;2023-03-26T21:00:15;9.95;;;1.60;;
58338;SDS011;68636;52.704;6.536;2023-03-26T21:02:51;6.88;;;0.65;;
58338;SDS011;68636;52.704;6.536;2023-03-26T21:05:23;12.48;;;1.25;;
58338;SDS011;68636;52.704;6.536;2023-03-26T21:07:53;12.35;;;1.00;;
58338;SDS011;68636;52.704;6.536;2023-03-26T21:10:23;9.98;;;1.08;;
58338;SDS011;68636;52.704;6.536;2023-03-26T21:12:57;11.60;;;0.82;;
58338;SDS011;68636;52.704;6.536;2023-03-26T21:15:44;17.45;;;1.15;;
58338;SDS011;68636;52.704;6.536;2023-03-26T21:18:10;9.55;;;1.85;;
58338;SDS011;68636;52.704;6.536;2023-03-26T21:20:36;15.25;;;1.05;;
58338;SDS011;68636;52.704;6.536;2023-03-26T21:26:12;11.13;;;0.93;;
58338;SDS011;68636;52.704;6.536;2023-03-26T21:28:46;13.23;;;1.02;;